Time,TemperatureF,DewpointF,PressureIn,WindDirection,WindDirectionDegrees,WindSpeedMPH,WindSpeedGustMPH,Humidity,HourlyPrecipIn,Conditions,Clouds,dailyrainin,SoftwareType,DateUTC
2013-03-20 00:03:00,47.6,44.2,30.08,WSW,248,0.0,0.0,88,0.00,,,0.00,Wunderground v.1.15,2013-03-20 07:03:00,
2013-03-20 00:09:00,47.6,44.2,30.07,WSW,248,0.0,0.0,88,0.00,,,0.00,Wunderground v.1.15,2013-03-20 07:09:00,
2013-03-20 00:16:00,47.7,44.3,30.07,WSW,248,0.0,0.0,88,0.00,,,0.00,Wunderground v.1.15,2013-03-20 07:16:00,
2013-03-20 00:21:00,47.7,44.3,30.07,WSW,248,0.0,0.0,88,0.00,,,0.00,Wunderground v.1.15,2013-03-20 07:21:00,
2013-03-20 00:27:00,47.8,44.4,30.07,WSW,248,0.0,0.0,88,0.00,,,0.00,Wunderground v.1.15,2013-03-20 07:27:00,
2013-03-20 00:33:00,47.8,44.4,30.08,WSW,248,0.0,0.0,88,0.00,,,0.00,Wunderground v.1.15,2013-03-20 07:33:00,
2013-03-20 00:39:00,47.8,44.4,30.08,WSW,248,0.0,0.0,88,0.00,,,0.00,Wunderground v.1.15,2013-03-20 07:39:00,
2013-03-20 00:46:00,47.8,44.4,30.08,WSW,248,0.0,0.0,88,0.00,,,0.00,Wunderground v.1.15,2013-03-20 07:46:00,
2013-03-20 00:51:00,47.8,44.4,30.08,WSW,248,0.0,0.0,88,0.00,,,0.00,Wunderground v.1.15,2013-03-20 07:51:00,
2013-03-20 00:57:00,47.8,44.4,30.08,WSW,248,0.0,0.0,88,0.00,,,0.01,Wunderground v.1.15,2013-03-20 07:57:00,
2013-03-20 01:03:00,47.8,44.4,30.08,WSW,248,0.0,0.0,88,0.00,,,0.01,Wunderground v.1.15,2013-03-20 08:03:00,
2013-03-20 01:09:00,47.8,44.4,30.08,WSW,248,0.0,0.0,88,0.00,,,0.01,Wunderground v.1.15,2013-03-20 08:09:00,
2013-03-20 01:16:00,47.7,44.3,30.08,WSW,248,0.0,0.0,88,0.00,,,0.02,Wunderground v.1.15,2013-03-20 08:16:00,
2013-03-20 01:21:00,47.7,44.3,30.08,WSW,248,0.0,0.0,88,0.09,,,0.03,Wunderground v.1.15,2013-03-20 08:21:00,
2013-03-20 01:27:00,47.7,44.3,30.08,WSW,248,0.0,0.0,88,0.06,,,0.03,Wunderground v.1.15,2013-03-20 08:27:00,
2013-03-20 01:33:00,47.7,44.6,30.09,WSW,248,0.0,0.0,89,0.05,,,0.04,Wunderground v.1.15,2013-03-20 08:33:00,
2013-03-20 01:39:00,47.7,44.6,30.09,WSW,248,0.0,0.0,89,0.05,,,0.04,Wunderground v.1.15,2013-03-20 08:39:00,
2013-03-20 01:45:00,47.7,44.6,30.09,WSW,248,0.0,0.0,89,0.04,,,0.05,Wunderground v.1.15,2013-03-20 08:45:00,
2013-03-20 01:51:00,47.5,44.1,30.09,WSW,248,0.0,0.0,88,0.07,,,0.05,Wunderground v.1.15,2013-03-20 08:51:00,
2013-03-20 01:57:00,47.0,43.6,30.09,WSW,248,0.0,0.0,88,0.11,,,0.07,Wunderground v.1.15,2013-03-20 08:57:00,
2013-03-20 02:03:00,46.7,43.3,30.10,WSW,248,0.0,0.0,88,0.10,,,0.07,Wunderground v.1.15,2013-03-20 09:03:00,
2013-03-20 02:09:00,46.7,43.3,30.09,WSW,248,0.0,0.0,88,0.07,,,0.08,Wunderground v.1.15,2013-03-20 09:09:00,
2013-03-20 02:15:00,46.6,43.2,30.09,WSW,248,0.0,0.0,88,0.07,,,0.09,Wunderground v.1.15,2013-03-20 09:15:00,
2013-03-20 02:21:00,46.7,43.3,30.09,WSW,248,0.0,0.0,88,0.07,,,0.09,Wunderground v.1.15,2013-03-20 09:21:00,
2013-03-20 02:27:00,46.7,43.3,30.09,WSW,248,0.0,0.0,88,0.08,,,0.10,Wunderground v.1.15,2013-03-20 09:27:00,
2013-03-20 02:33:00,46.8,43.4,30.09,WSW,248,0.0,0.0,88,0.10,,,0.11,Wunderground v.1.15,2013-03-20 09:33:00,
2013-03-20 02:39:00,46.8,43.7,30.08,WSW,248,0.0,0.0,89,0.06,,,0.12,Wunderground v.1.15,2013-03-20 09:39:00,
2013-03-20 02:46:00,46.8,43.7,30.08,WSW,248,0.0,0.0,89,0.09,,,0.13,Wunderground v.1.15,2013-03-20 09:46:00,
2013-03-20 02:51:00,46.9,43.8,30.08,WSW,248,0.0,0.0,89,0.08,,,0.13,Wunderground v.1.15,2013-03-20 09:51:00,
2013-03-20 02:57:00,46.9,43.8,30.08,WSW,248,0.0,0.0,89,0.06,,,0.14,Wunderground v.1.15,2013-03-20 09:57:00,
2013-03-20 03:03:00,46.9,43.8,30.08,WSW,248,0.0,0.0,89,0.07,,,0.15,Wunderground v.1.15,2013-03-20 10:03:00,
2013-03-20 03:09:00,46.9,43.8,30.08,WSW,248,0.0,0.0,89,0.07,,,0.15,Wunderground v.1.15,2013-03-20 10:09:00,
2013-03-20 03:15:00,46.9,43.8,30.07,WSW,248,0.0,0.0,89,0.05,,,0.15,Wunderground v.1.15,2013-03-20 10:15:00,
2013-03-20 03:21:00,46.9,43.8,30.07,WSW,248,0.0,0.0,89,0.04,,,0.16,Wunderground v.1.15,2013-03-20 10:21:00,
2013-03-20 03:27:00,46.9,43.8,30.07,WSW,248,0.0,0.0,89,0.04,,,0.16,Wunderground v.1.15,2013-03-20 10:27:00,
2013-03-20 03:33:00,47.0,43.9,30.07,WSW,248,0.0,0.0,89,0.04,,,0.16,Wunderground v.1.15,2013-03-20 10:33:00,
2013-03-20 03:39:00,47.0,43.9,30.07,WSW,248,0.0,0.0,89,0.00,,,0.16,Wunderground v.1.15,2013-03-20 10:39:00,
2013-03-20 03:45:00,47.1,44.0,30.07,WSW,248,0.0,0.0,89,0.00,,,0.17,Wunderground v.1.15,2013-03-20 10:45:00,
2013-03-20 03:51:00,47.1,44.0,30.06,WSW,248,0.0,0.0,89,0.00,,,0.17,Wunderground v.1.15,2013-03-20 10:51:00,
2013-03-20 03:57:00,47.2,44.1,30.06,WSW,248,0.0,0.0,89,0.00,,,0.17,Wunderground v.1.15,2013-03-20 10:57:00,
2013-03-20 04:03:00,47.2,44.1,30.06,WSW,248,0.0,0.0,89,0.00,,,0.17,Wunderground v.1.15,2013-03-20 11:03:00,
2013-03-20 04:09:00,47.4,44.3,30.05,WSW,248,0.0,0.0,89,0.00,,,0.17,Wunderground v.1.15,2013-03-20 11:09:00,
2013-03-20 04:15:00,47.4,44.3,30.05,WSW,248,0.0,0.0,89,0.00,,,0.17,Wunderground v.1.15,2013-03-20 11:15:00,
2013-03-20 04:21:00,47.4,44.3,30.06,WSW,248,0.0,0.0,89,0.00,,,0.17,Wunderground v.1.15,2013-03-20 11:21:00,
2013-03-20 04:29:00,47.4,44.3,30.06,WSW,248,0.0,0.0,89,0.00,,,0.17,Wunderground v.1.15,2013-03-20 11:29:00,
2013-03-20 04:35:00,47.4,44.3,30.06,WSW,248,0.0,0.0,89,0.00,,,0.17,Wunderground v.1.15,2013-03-20 11:35:00,
2013-03-20 04:41:00,47.4,44.3,30.06,WSW,248,0.0,0.0,89,0.00,,,0.17,Wunderground v.1.15,2013-03-20 11:41:00,
2013-03-20 04:47:00,47.5,44.7,30.05,WSW,248,0.0,0.0,90,0.00,,,0.17,Wunderground v.1.15,2013-03-20 11:47:00,
2013-03-20 04:53:00,47.6,44.8,30.06,WSW,248,0.0,0.0,90,0.00,,,0.18,Wunderground v.1.15,2013-03-20 11:53:00,
2013-03-20 04:59:00,47.6,44.8,30.06,WSW,248,0.0,0.0,90,0.10,,,0.19,Wunderground v.1.15,2013-03-20 11:59:00,
2013-03-20 05:05:00,47.7,44.9,30.06,WSW,248,0.0,0.0,90,0.10,,,0.20,Wunderground v.1.15,2013-03-20 12:05:00,
2013-03-20 05:11:00,47.8,45.0,30.05,WSW,248,0.0,0.0,90,0.05,,,0.20,Wunderground v.1.15,2013-03-20 12:11:00,
2013-03-20 05:17:00,47.7,44.9,30.05,WSW,248,0.0,0.0,90,0.04,,,0.21,Wunderground v.1.15,2013-03-20 12:17:00,
2013-03-20 05:23:00,47.8,45.0,30.05,WSW,248,0.0,0.0,90,0.04,,,0.21,Wunderground v.1.15,2013-03-20 12:23:00,
2013-03-20 05:29:00,47.8,45.0,30.05,WSW,248,0.0,0.0,90,0.07,,,0.22,Wunderground v.1.15,2013-03-20 12:29:00,
2013-03-20 05:35:00,47.8,45.0,30.05,WSW,248,0.0,0.0,90,0.16,,,0.24,Wunderground v.1.15,2013-03-20 12:35:00,
2013-03-20 05:41:00,47.8,45.0,30.05,WSW,248,0.0,0.0,90,0.10,,,0.24,Wunderground v.1.15,2013-03-20 12:41:00,
2013-03-20 05:47:00,47.7,44.9,30.05,WSW,248,0.0,0.0,90,0.08,,,0.25,Wunderground v.1.15,2013-03-20 12:47:00,
2013-03-20 05:53:00,47.7,44.9,30.05,WSW,248,0.0,0.0,90,0.06,,,0.25,Wunderground v.1.15,2013-03-20 12:53:00,
2013-03-20 05:59:00,47.6,44.8,30.05,WSW,248,0.0,0.0,90,0.04,,,0.25,Wunderground v.1.15,2013-03-20 12:59:00,
2013-03-20 06:05:00,47.6,44.8,30.05,WSW,248,0.0,0.0,90,0.11,,,0.27,Wunderground v.1.15,2013-03-20 13:05:00,
2013-03-20 06:13:00,47.5,44.7,30.04,WSW,248,0.0,0.0,90,0.07,,,0.27,Wunderground v.1.15,2013-03-20 13:13:00,
2013-03-20 06:19:00,47.5,44.7,30.04,WSW,248,0.0,0.0,90,0.04,,,0.27,Wunderground v.1.15,2013-03-20 13:19:00,
2013-03-20 06:25:00,47.5,44.7,30.04,WSW,248,0.0,0.0,90,0.00,,,0.27,Wunderground v.1.15,2013-03-20 13:25:00,
2013-03-20 06:31:00,47.5,44.7,30.04,WSW,248,0.0,0.0,90,0.00,,,0.28,Wunderground v.1.15,2013-03-20 13:31:00,
2013-03-20 06:37:00,47.5,44.7,30.04,WSW,248,0.0,0.0,90,0.00,,,0.28,Wunderground v.1.15,2013-03-20 13:37:00,
2013-03-20 06:43:00,47.5,44.7,30.04,WSW,248,0.0,0.0,90,0.00,,,0.28,Wunderground v.1.15,2013-03-20 13:43:00,
2013-03-20 06:49:00,47.5,44.7,30.04,WSW,248,0.0,0.0,90,0.00,,,0.28,Wunderground v.1.15,2013-03-20 13:49:00,
2013-03-20 06:55:00,47.5,44.7,30.04,WSW,248,0.0,0.0,90,0.00,,,0.28,Wunderground v.1.15,2013-03-20 13:55:00,
2013-03-20 07:01:00,47.6,44.8,30.04,WSW,248,0.0,0.0,90,0.00,,,0.28,Wunderground v.1.15,2013-03-20 14:01:00,
2013-03-20 07:07:00,47.6,44.8,30.04,WSW,248,0.0,0.0,90,0.00,,,0.28,Wunderground v.1.15,2013-03-20 14:07:00,
2013-03-20 07:13:00,47.6,44.8,30.05,WSW,248,0.0,0.0,90,0.00,,,0.28,Wunderground v.1.15,2013-03-20 14:13:00,
2013-03-20 07:19:00,47.6,44.8,30.05,WSW,248,0.0,0.0,90,0.00,,,0.28,Wunderground v.1.15,2013-03-20 14:19:00,
2013-03-20 07:25:00,47.7,44.9,30.04,WSW,248,0.0,0.0,90,0.00,,,0.28,Wunderground v.1.15,2013-03-20 14:25:00,
2013-03-20 07:31:00,47.8,45.0,30.04,WSW,248,0.0,0.0,90,0.00,,,0.28,Wunderground v.1.15,2013-03-20 14:31:00,
2013-03-20 07:37:00,47.9,45.1,30.04,WSW,248,0.0,0.0,90,0.00,,,0.29,Wunderground v.1.15,2013-03-20 14:37:00,
2013-03-20 07:43:00,47.9,45.1,30.04,WSW,248,0.0,0.0,90,0.00,,,0.29,Wunderground v.1.15,2013-03-20 14:43:00,
2013-03-20 07:49:00,48.0,45.2,30.04,WSW,248,0.0,0.0,90,0.00,,,0.29,Wunderground v.1.15,2013-03-20 14:49:00,
2013-03-20 07:55:00,48.1,45.3,30.04,WSW,248,0.0,0.0,90,0.00,,,0.29,Wunderground v.1.15,2013-03-20 14:55:00,
2013-03-20 08:13:00,48.5,45.7,30.05,WSW,248,0.0,0.0,90,0.00,,,0.29,Wunderground v.1.15,2013-03-20 15:13:00,
2013-03-20 08:19:00,48.7,45.9,30.04,WSW,248,0.0,0.0,90,0.00,,,0.29,Wunderground v.1.15,2013-03-20 15:19:00,
2013-03-20 08:25:00,48.9,46.1,30.04,WSW,248,0.0,0.0,90,0.00,,,0.29,Wunderground v.1.15,2013-03-20 15:25:00,
2013-03-20 08:39:00,49.2,46.4,30.04,WSW,248,0.0,0.0,90,0.00,,,0.29,Wunderground v.1.15,2013-03-20 15:39:00,
2013-03-20 08:45:00,49.4,46.6,30.05,WSW,248,0.0,0.0,90,0.00,,,0.29,Wunderground v.1.15,2013-03-20 15:45:00,
2013-03-20 08:51:00,49.5,46.7,30.04,WSW,248,0.0,0.0,90,0.00,,,0.29,Wunderground v.1.15,2013-03-20 15:51:00,
2013-03-20 08:59:00,49.7,47.2,30.04,WSW,248,0.0,0.0,91,0.00,,,0.29,Wunderground v.1.15,2013-03-20 15:59:00,
2013-03-20 09:05:00,49.8,47.3,30.05,WSW,248,0.0,0.0,91,0.00,,,0.29,Wunderground v.1.15,2013-03-20 16:05:00,
2013-03-20 09:11:00,49.8,47.0,30.05,WSW,248,0.0,0.0,90,0.00,,,0.29,Wunderground v.1.15,2013-03-20 16:11:00,
2013-03-20 09:17:00,49.9,47.1,30.05,WSW,248,0.0,0.0,90,0.00,,,0.29,Wunderground v.1.15,2013-03-20 16:17:00,
2013-03-20 09:23:00,50.1,47.3,30.05,WSW,248,0.0,0.0,90,0.00,,,0.29,Wunderground v.1.15,2013-03-20 16:23:00,
2013-03-20 09:29:00,50.2,47.4,30.05,WSW,248,0.0,0.0,90,0.00,,,0.29,Wunderground v.1.15,2013-03-20 16:29:00,
2013-03-20 09:35:00,50.3,47.8,30.05,WSW,248,0.0,0.0,91,0.00,,,0.29,Wunderground v.1.15,2013-03-20 16:35:00,
2013-03-20 09:41:00,50.3,47.8,30.06,WSW,248,0.0,0.0,91,0.00,,,0.29,Wunderground v.1.15,2013-03-20 16:41:00,
2013-03-20 09:47:00,50.3,47.5,30.06,WSW,248,0.0,0.0,90,0.00,,,0.29,Wunderground v.1.15,2013-03-20 16:47:00,
2013-03-20 09:53:00,50.5,48.0,30.06,WSW,248,0.0,0.0,91,0.00,,,0.29,Wunderground v.1.15,2013-03-20 16:53:00,
2013-03-20 09:59:00,50.8,48.0,30.06,WSW,248,0.0,0.0,90,0.00,,,0.29,Wunderground v.1.15,2013-03-20 16:59:00,
2013-03-20 10:05:00,51.0,48.2,30.07,WSW,248,0.0,0.0,90,0.00,,,0.29,Wunderground v.1.15,2013-03-20 17:05:00,
2013-03-20 10:11:00,50.9,48.1,30.07,WSW,248,0.0,0.0,90,0.00,,,0.30,Wunderground v.1.15,2013-03-20 17:11:00,
2013-03-20 10:17:00,50.6,48.1,30.07,WSW,248,0.0,0.0,91,0.10,,,0.31,Wunderground v.1.15,2013-03-20 17:17:00,
2013-03-20 10:23:00,50.8,48.0,30.07,WSW,248,0.0,0.0,90,0.10,,,0.32,Wunderground v.1.15,2013-03-20 17:23:00,
2013-03-20 10:29:00,50.9,48.1,30.07,WSW,248,0.0,0.0,90,0.06,,,0.33,Wunderground v.1.15,2013-03-20 17:29:00,
2013-03-20 10:35:00,50.8,48.0,30.07,WSW,248,0.0,0.0,90,0.09,,,0.34,Wunderground v.1.15,2013-03-20 17:35:00,
2013-03-20 10:41:00,50.9,48.1,30.08,WSW,248,0.0,0.0,90,0.08,,,0.34,Wunderground v.1.15,2013-03-20 17:41:00,
2013-03-20 10:47:00,51.1,48.6,30.07,WSW,248,0.0,0.0,91,0.07,,,0.35,Wunderground v.1.15,2013-03-20 17:47:00,
2013-03-20 10:53:00,51.3,48.8,30.07,WSW,248,0.0,0.0,91,0.06,,,0.35,Wunderground v.1.15,2013-03-20 17:53:00,
2013-03-20 10:59:00,51.6,49.1,30.07,WSW,248,0.0,0.0,91,0.04,,,0.35,Wunderground v.1.15,2013-03-20 17:59:00,
2013-03-20 11:04:00,52.0,49.5,30.07,WSW,248,0.0,0.0,91,0.00,,,0.35,Wunderground v.1.15,2013-03-20 18:04:00,
2013-03-20 11:10:00,52.2,49.7,30.07,WSW,248,0.0,0.0,91,0.00,,,0.36,Wunderground v.1.15,2013-03-20 18:10:00,
2013-03-20 11:18:00,52.3,49.8,30.08,WSW,248,0.0,0.0,91,0.00,,,0.36,Wunderground v.1.15,2013-03-20 18:18:00,
2013-03-20 11:24:00,52.4,49.8,30.08,WSW,248,0.0,0.0,91,0.00,,,0.36,Wunderground v.1.15,2013-03-20 18:24:00,
2013-03-20 11:30:00,52.5,49.9,30.08,WSW,248,0.0,0.0,91,0.00,,,0.37,Wunderground v.1.15,2013-03-20 18:30:00,
2013-03-20 11:36:00,52.7,50.1,30.08,WSW,248,0.0,0.0,91,0.00,,,0.37,Wunderground v.1.15,2013-03-20 18:36:00,
2013-03-20 11:42:00,52.9,50.3,30.08,WSW,248,0.0,0.0,91,0.00,,,0.37,Wunderground v.1.15,2013-03-20 18:42:00,
2013-03-20 11:48:00,52.8,50.2,30.08,WSW,248,0.0,0.0,91,0.00,,,0.37,Wunderground v.1.15,2013-03-20 18:48:00,
2013-03-20 11:54:00,52.8,50.2,30.08,WSW,248,0.0,0.0,91,0.00,,,0.37,Wunderground v.1.15,2013-03-20 18:54:00,
2013-03-20 12:00:00,53.0,50.4,30.08,WSW,248,0.0,0.0,91,0.00,,,0.37,Wunderground v.1.15,2013-03-20 19:00:00,
2013-03-20 12:06:00,53.1,50.5,30.08,WSW,248,0.0,0.0,91,0.00,,,0.37,Wunderground v.1.15,2013-03-20 19:06:00,
2013-03-20 12:12:00,53.4,50.8,30.08,WSW,248,0.0,0.0,91,0.00,,,0.38,Wunderground v.1.15,2013-03-20 19:12:00,
2013-03-20 12:18:00,53.4,50.8,30.08,WSW,248,0.0,0.0,91,0.00,,,0.38,Wunderground v.1.15,2013-03-20 19:18:00,
2013-03-20 12:24:00,53.5,50.9,30.07,WSW,248,0.0,0.0,91,0.00,,,0.38,Wunderground v.1.15,2013-03-20 19:24:00,
2013-03-20 12:29:00,53.6,51.0,30.07,WSW,248,0.0,0.0,91,0.00,,,0.38,Wunderground v.1.15,2013-03-20 19:29:00,
2013-03-20 12:36:00,54.0,51.4,30.06,WSW,248,0.0,0.0,91,0.00,,,0.38,Wunderground v.1.15,2013-03-20 19:36:00,
2013-03-20 12:42:00,54.5,51.9,30.06,WSW,246,0.0,0.0,91,0.00,,,0.38,Wunderground v.1.15,2013-03-20 19:42:00,
2013-03-20 12:48:00,55.0,52.4,30.06,WSW,246,0.0,0.0,91,0.00,,,0.38,Wunderground v.1.15,2013-03-20 19:48:00,
2013-03-20 12:54:00,55.2,52.6,30.06,WSW,246,0.0,0.0,91,0.00,,,0.38,Wunderground v.1.15,2013-03-20 19:54:00,
2013-03-20 13:00:00,55.0,52.4,30.06,SW,236,0.0,0.0,91,0.00,,,0.38,Wunderground v.1.15,2013-03-20 20:00:00,
2013-03-20 13:06:00,55.2,52.6,30.06,SW,236,0.0,0.0,91,0.00,,,0.38,Wunderground v.1.15,2013-03-20 20:06:00,
2013-03-20 13:13:00,55.5,52.9,30.06,SW,236,0.0,0.0,91,0.00,,,0.38,Wunderground v.1.15,2013-03-20 20:13:00,
2013-03-20 13:19:00,55.3,52.7,30.06,SW,236,0.0,0.0,91,0.00,,,0.38,Wunderground v.1.15,2013-03-20 20:19:00,
2013-03-20 13:26:00,55.5,52.9,30.06,SW,236,0.0,0.0,91,0.00,,,0.38,Wunderground v.1.15,2013-03-20 20:26:00,
2013-03-20 13:32:00,55.4,52.8,30.07,SW,236,0.0,1.0,91,0.00,,,0.38,Wunderground v.1.15,2013-03-20 20:32:00,
2013-03-20 13:38:00,55.4,52.8,30.07,SW,236,0.0,1.0,91,0.00,,,0.38,Wunderground v.1.15,2013-03-20 20:38:00,
2013-03-20 13:43:00,55.5,52.9,30.06,SW,236,0.0,1.0,91,0.00,,,0.38,Wunderground v.1.15,2013-03-20 20:43:00,
2013-03-20 13:49:00,55.6,53.0,30.06,SW,236,0.0,1.0,91,0.00,,,0.38,Wunderground v.1.15,2013-03-20 20:49:00,
2013-03-20 13:56:00,55.7,52.8,30.06,SW,236,0.0,1.0,90,0.00,,,0.38,Wunderground v.1.15,2013-03-20 20:56:00,
2013-03-20 14:02:00,55.9,53.3,30.06,SW,236,0.0,1.0,91,0.00,,,0.38,Wunderground v.1.15,2013-03-20 21:02:00,
2013-03-20 14:07:00,56.3,53.7,30.07,SW,236,0.0,1.0,91,0.00,,,0.38,Wunderground v.1.15,2013-03-20 21:07:00,
2013-03-20 14:13:00,56.5,53.9,30.06,SW,236,0.0,1.0,91,0.00,,,0.38,Wunderground v.1.15,2013-03-20 21:13:00,
2013-03-20 14:20:00,56.7,54.1,30.06,SW,236,0.0,1.0,91,0.00,,,0.38,Wunderground v.1.15,2013-03-20 21:20:00,
2013-03-20 14:27:00,56.4,53.5,30.06,SW,236,0.0,1.0,90,0.00,,,0.38,Wunderground v.1.15,2013-03-20 21:27:00,
2013-03-20 14:34:00,56.2,53.3,30.06,SW,236,0.0,1.0,90,0.00,,,0.38,Wunderground v.1.15,2013-03-20 21:34:00,
2013-03-20 14:39:00,56.0,53.1,30.06,SW,236,0.0,1.0,90,0.00,,,0.38,Wunderground v.1.15,2013-03-20 21:39:00,
2013-03-20 14:46:00,55.9,53.0,30.06,SW,236,0.0,1.0,90,0.00,,,0.38,Wunderground v.1.15,2013-03-20 21:46:00,
2013-03-20 14:52:00,56.1,53.2,30.06,SW,236,0.0,1.0,90,0.00,,,0.39,Wunderground v.1.15,2013-03-20 21:52:00,
2013-03-20 14:57:00,56.4,53.5,30.06,SW,236,0.0,1.0,90,0.00,,,0.39,Wunderground v.1.15,2013-03-20 21:57:00,
2013-03-20 15:04:00,56.5,53.6,30.06,SW,236,0.0,1.0,90,0.00,,,0.39,Wunderground v.1.15,2013-03-20 22:04:00,
2013-03-20 15:09:00,56.6,53.7,30.06,SW,236,0.0,1.0,90,0.00,,,0.40,Wunderground v.1.15,2013-03-20 22:09:00,
2013-03-20 15:16:00,56.6,53.7,30.06,SW,236,0.0,1.0,90,0.00,,,0.40,Wunderground v.1.15,2013-03-20 22:16:00,
2013-03-20 15:21:00,56.5,53.6,30.06,SW,236,0.0,0.0,90,0.00,,,0.40,Wunderground v.1.15,2013-03-20 22:21:00,
2013-03-20 15:27:00,56.5,53.6,30.06,SW,236,0.0,0.0,90,0.00,,,0.41,Wunderground v.1.15,2013-03-20 22:27:00,
2013-03-20 15:34:00,56.4,53.5,30.06,SW,236,0.0,1.0,90,0.00,,,0.41,Wunderground v.1.15,2013-03-20 22:34:00,
2013-03-20 15:40:00,56.1,53.2,30.06,SW,236,0.0,0.0,90,0.05,,,0.42,Wunderground v.1.15,2013-03-20 22:40:00,
2013-03-20 15:46:00,56.2,53.3,30.06,SW,236,0.0,0.0,90,0.05,,,0.42,Wunderground v.1.15,2013-03-20 22:46:00,
2013-03-20 15:52:00,56.0,53.1,30.05,SW,236,0.0,0.0,90,0.04,,,0.42,Wunderground v.1.15,2013-03-20 22:52:00,
2013-03-20 15:58:00,55.9,53.0,30.05,SW,236,0.0,0.0,90,0.00,,,0.42,Wunderground v.1.15,2013-03-20 22:58:00,
2013-03-20 16:03:00,55.9,53.0,30.05,SW,236,0.0,0.0,90,0.00,,,0.42,Wunderground v.1.15,2013-03-20 23:03:00,
2013-03-20 16:10:00,56.2,53.3,30.05,SW,236,0.0,0.0,90,0.00,,,0.42,Wunderground v.1.15,2013-03-20 23:10:00,
2013-03-20 16:16:00,56.6,53.7,30.05,SW,236,0.0,0.0,90,0.00,,,0.43,Wunderground v.1.15,2013-03-20 23:16:00,
2013-03-20 16:21:00,56.5,53.6,30.05,SW,236,0.0,0.0,90,0.00,,,0.43,Wunderground v.1.15,2013-03-20 23:21:00,
2013-03-20 16:29:00,56.5,53.6,30.05,SW,236,0.0,0.0,90,0.00,,,0.43,Wunderground v.1.15,2013-03-20 23:29:00,
2013-03-20 16:36:00,56.7,53.8,30.05,SW,236,0.0,0.0,90,0.00,,,0.43,Wunderground v.1.15,2013-03-20 23:36:00,
2013-03-20 16:41:00,56.9,54.0,30.04,SW,236,0.0,0.0,90,0.00,,,0.43,Wunderground v.1.15,2013-03-20 23:41:00,
2013-03-20 16:47:00,57.3,54.4,30.04,SW,236,0.0,0.0,90,0.00,,,0.43,Wunderground v.1.15,2013-03-20 23:47:00,
2013-03-20 16:53:00,57.6,54.7,30.04,SW,236,0.0,0.0,90,0.00,,,0.43,Wunderground v.1.15,2013-03-20 23:53:00,
2013-03-20 16:59:00,57.5,54.6,30.04,SW,236,0.0,0.0,90,0.00,,,0.43,Wunderground v.1.15,2013-03-20 23:59:00,
2013-03-20 17:06:00,57.4,54.5,30.03,SW,236,0.0,0.0,90,0.00,,,0.43,Wunderground v.1.15,2013-03-21 00:06:00,
2013-03-20 17:13:00,57.5,54.6,30.03,SW,236,0.0,0.0,90,0.00,,,0.43,Wunderground v.1.15,2013-03-21 00:13:00,
2013-03-20 17:19:00,57.6,54.7,30.04,SW,236,0.0,0.0,90,0.00,,,0.43,Wunderground v.1.15,2013-03-21 00:19:00,
2013-03-20 17:26:00,57.6,54.7,30.03,SW,236,0.0,0.0,90,0.00,,,0.43,Wunderground v.1.15,2013-03-21 00:26:00,
2013-03-20 17:31:00,57.5,54.6,30.04,SW,236,0.0,0.0,90,0.00,,,0.43,Wunderground v.1.15,2013-03-21 00:31:00,
2013-03-20 17:37:00,57.4,54.5,30.04,SW,236,0.0,0.0,90,0.00,,,0.43,Wunderground v.1.15,2013-03-21 00:37:00,
2013-03-20 17:43:00,57.2,54.3,30.04,SW,236,0.0,0.0,90,0.00,,,0.43,Wunderground v.1.15,2013-03-21 00:43:00,
2013-03-20 17:49:00,57.1,54.2,30.04,SW,236,0.0,0.0,90,0.00,,,0.43,Wunderground v.1.15,2013-03-21 00:49:00,
2013-03-20 17:55:00,56.6,53.7,30.05,SW,236,0.0,0.0,90,0.00,,,0.43,Wunderground v.1.15,2013-03-21 00:55:00,
2013-03-20 18:01:00,56.3,53.4,30.05,SW,236,0.0,0.0,90,0.00,,,0.43,Wunderground v.1.15,2013-03-21 01:01:00,
2013-03-20 18:07:00,56.1,52.9,30.05,SW,236,0.0,0.0,89,0.00,,,0.43,Wunderground v.1.15,2013-03-21 01:07:00,
2013-03-20 18:13:00,55.9,52.7,30.05,SW,231,0.0,0.0,89,0.00,,,0.43,Wunderground v.1.15,2013-03-21 01:13:00,
2013-03-20 18:19:00,55.5,52.3,30.05,SW,227,0.0,0.0,89,0.00,,,0.43,Wunderground v.1.15,2013-03-21 01:19:00,
2013-03-20 18:25:00,55.3,52.1,30.05,SW,227,0.0,0.0,89,0.00,,,0.43,Wunderground v.1.15,2013-03-21 01:25:00,
2013-03-20 18:33:00,55.0,51.5,30.05,SSW,213,0.0,1.0,88,0.00,,,0.43,Wunderground v.1.15,2013-03-21 01:33:00,
2013-03-20 18:39:00,54.7,51.2,30.05,SW,217,0.0,1.0,88,0.00,,,0.43,Wunderground v.1.15,2013-03-21 01:39:00,
2013-03-20 18:45:00,54.6,51.1,30.05,SW,217,0.0,1.0,88,0.00,,,0.43,Wunderground v.1.15,2013-03-21 01:45:00,
2013-03-20 18:53:00,54.4,50.9,30.05,SSW,213,1.0,3.0,88,0.00,,,0.43,Wunderground v.1.15,2013-03-21 01:53:00,
2013-03-20 18:59:00,54.2,50.7,30.05,South,190,1.0,1.0,88,0.00,,,0.43,Wunderground v.1.15,2013-03-21 01:59:00,
2013-03-20 19:06:00,54.1,50.6,30.05,South,191,0.0,1.0,88,0.00,,,0.43,Wunderground v.1.15,2013-03-21 02:06:00,
2013-03-20 19:11:00,54.0,50.5,30.06,SSW,192,0.0,1.0,88,0.00,,,0.43,Wunderground v.1.15,2013-03-21 02:11:00,
2013-03-20 19:17:00,53.9,50.4,30.06,WSW,245,0.0,1.0,88,0.00,,,0.43,Wunderground v.1.15,2013-03-21 02:17:00,
2013-03-20 19:23:00,53.8,50.3,30.06,WSW,243,0.0,1.0,88,0.00,,,0.43,Wunderground v.1.15,2013-03-21 02:23:00,
2013-03-20 19:29:00,53.7,49.9,30.06,WSW,243,0.0,0.0,87,0.00,,,0.43,Wunderground v.1.15,2013-03-21 02:29:00,
2013-03-20 19:35:00,53.5,50.0,30.06,WSW,243,0.0,0.0,88,0.00,,,0.43,Wunderground v.1.15,2013-03-21 02:35:00,
2013-03-20 19:41:00,53.4,49.9,30.06,WSW,243,0.0,0.0,88,0.00,,,0.43,Wunderground v.1.15,2013-03-21 02:41:00,
2013-03-20 19:47:00,53.3,49.8,30.06,WSW,243,0.0,0.0,88,0.00,,,0.43,Wunderground v.1.15,2013-03-21 02:47:00,
2013-03-20 19:53:00,53.0,49.5,30.07,WSW,243,0.0,0.0,88,0.00,,,0.43,Wunderground v.1.15,2013-03-21 02:53:00,
2013-03-20 19:59:00,52.8,49.3,30.07,WSW,243,0.0,0.0,88,0.00,,,0.43,Wunderground v.1.15,2013-03-21 02:59:00,
2013-03-20 20:05:00,52.6,49.1,30.07,WSW,243,0.0,0.0,88,0.00,,,0.43,Wunderground v.1.15,2013-03-21 03:05:00,
2013-03-20 20:11:00,52.6,49.1,30.07,WSW,243,0.0,0.0,88,0.00,,,0.43,Wunderground v.1.15,2013-03-21 03:11:00,
2013-03-20 20:17:00,52.5,49.4,30.07,WSW,243,0.0,0.0,89,0.00,,,0.43,Wunderground v.1.15,2013-03-21 03:17:00,
2013-03-20 20:23:00,52.5,49.4,30.07,WSW,243,0.0,0.0,89,0.00,,,0.43,Wunderground v.1.15,2013-03-21 03:23:00,
2013-03-20 20:29:00,52.5,49.4,30.07,WSW,240,0.0,0.0,89,0.00,,,0.43,Wunderground v.1.15,2013-03-21 03:29:00,
2013-03-20 20:35:00,52.5,49.4,30.07,WSW,240,0.0,0.0,89,0.00,,,0.43,Wunderground v.1.15,2013-03-21 03:35:00,
2013-03-20 20:41:00,52.6,49.4,30.07,WSW,240,0.0,0.0,89,0.00,,,0.43,Wunderground v.1.15,2013-03-21 03:41:00,
2013-03-20 20:47:00,52.6,49.4,30.08,WSW,240,0.0,0.0,89,0.00,,,0.43,Wunderground v.1.15,2013-03-21 03:47:00,
2013-03-20 20:53:00,52.6,49.4,30.08,WSW,240,0.0,0.0,89,0.00,,,0.43,Wunderground v.1.15,2013-03-21 03:53:00,
2013-03-20 20:59:00,52.6,49.4,30.08,WSW,240,0.0,0.0,89,0.00,,,0.43,Wunderground v.1.15,2013-03-21 03:59:00,
2013-03-20 21:01:00,52.5,49.4,30.08,WSW,240,0.0,0.0,89,0.00,,,0.43,Wunderground v.1.15,2013-03-21 04:01:00,
2013-03-20 21:03:00,52.5,49.4,30.08,WSW,240,0.0,0.0,89,0.00,,,0.43,Wunderground v.1.15,2013-03-21 04:03:00,
2013-03-20 21:05:00,52.5,49.4,30.08,WSW,240,0.0,0.0,89,0.00,,,0.43,Wunderground v.1.15,2013-03-21 04:05:00,
2013-03-20 21:09:00,52.5,49.4,30.08,WSW,240,0.0,0.0,89,0.00,,,0.43,Wunderground v.1.15,2013-03-21 04:09:00,
2013-03-20 21:15:00,52.4,49.3,30.08,WSW,240,0.0,0.0,89,0.00,,,0.43,Wunderground v.1.15,2013-03-21 04:15:00,
2013-03-20 22:01:00,51.7,48.6,30.09,WSW,240,0.0,0.0,89,0.00,,,0.43,Wunderground v.1.15,2013-03-21 05:01:00,
2013-03-20 22:07:00,51.7,48.9,30.09,WSW,240,0.0,0.0,90,0.00,,,0.43,Wunderground v.1.15,2013-03-21 05:07:00,
2013-03-20 22:13:00,51.6,48.8,30.10,WSW,240,0.0,0.0,90,0.00,,,0.43,Wunderground v.1.15,2013-03-21 05:13:00,
2013-03-20 22:19:00,51.5,48.7,30.09,WSW,240,0.0,0.0,90,0.00,,,0.43,Wunderground v.1.15,2013-03-21 05:19:00,
2013-03-20 22:25:00,51.3,48.2,30.09,WSW,240,0.0,0.0,89,0.00,,,0.43,Wunderground v.1.15,2013-03-21 05:25:00,
2013-03-20 22:31:00,51.2,48.4,30.09,WSW,240,0.0,0.0,90,0.00,,,0.43,Wunderground v.1.15,2013-03-21 05:31:00,
2013-03-20 22:37:00,51.1,48.3,30.09,WSW,240,0.0,0.0,90,0.00,,,0.43,Wunderground v.1.15,2013-03-21 05:37:00,
2013-03-20 22:43:00,51.0,48.2,30.09,SW,219,0.0,0.0,90,0.00,,,0.43,Wunderground v.1.15,2013-03-21 05:43:00,
2013-03-20 22:49:00,50.8,48.0,30.09,SW,219,0.0,0.0,90,0.00,,,0.43,Wunderground v.1.15,2013-03-21 05:49:00,
2013-03-20 22:55:00,50.7,47.9,30.09,SSW,211,0.0,0.0,90,0.00,,,0.43,Wunderground v.1.15,2013-03-21 05:55:00,
2013-03-20 23:03:00,50.7,47.6,30.09,SSW,213,0.0,1.0,89,0.00,,,0.43,Wunderground v.1.15,2013-03-21 06:03:00,
2013-03-20 23:09:00,50.7,47.9,30.09,West,272,0.0,0.0,90,0.00,,,0.43,Wunderground v.1.15,2013-03-21 06:09:00,
2013-03-20 23:15:00,50.5,47.4,30.09,West,272,0.0,0.0,89,0.00,,,0.43,Wunderground v.1.15,2013-03-21 06:15:00,
2013-03-20 23:21:00,50.5,47.4,30.09,West,272,0.0,0.0,89,0.00,,,0.43,Wunderground v.1.15,2013-03-21 06:21:00,
2013-03-20 23:27:00,50.4,47.3,30.09,West,272,0.0,0.0,89,0.00,,,0.43,Wunderground v.1.15,2013-03-21 06:27:00,
2013-03-20 23:33:00,50.3,47.2,30.09,West,272,0.0,0.0,89,0.00,,,0.43,Wunderground v.1.15,2013-03-21 06:33:00,
2013-03-20 23:39:00,50.0,46.9,30.08,West,272,0.0,0.0,89,0.00,,,0.43,Wunderground v.1.15,2013-03-21 06:39:00,
2013-03-20 23:45:00,49.9,46.8,30.09,West,273,0.0,2.0,89,0.00,,,0.43,Wunderground v.1.15,2013-03-21 06:45:00,
2013-03-20 23:53:00,49.8,46.4,30.08,West,278,0.0,0.0,88,0.00,,,0.43,Wunderground v.1.15,2013-03-21 06:53:00,
2013-03-20 23:59:00,49.7,46.3,30.08,West,278,0.0,0.0,88,0.00,,,0.43,Wunderground v.1.15,2013-03-21 06:59:00,